Time;durP1;ratioP1;P1;durP2;ratioP2;P2;SDS_P1;SDS_P2;PMS_P1;PMS_P2;Temp;Humidity;BMP_temperature;BMP_pressure;BME280_temperature;BME280_humidity;BME280_pressure;Samples;Min_cycle;Max_cycle;Signal;HPM_P1;HPM_P2
2020/12/12 00:01:39;;;;;;;6.82;6.18;;;;;;;6.87;86.04;96603.94;6045697;23;20537;-81
2020/12/12 00:04:05;;;;;;;9.65;6.70;;;;;;;6.87;85.98;96593.25;6041658;23;20220;-84
2020/12/12 00:06:31;;;;;;;7.80;7.00;;;;;;;6.90;85.90;96601.81;6028127;23;20185;-81
2020/12/12 00:08:58;;;;;;;7.45;6.72;;;;;;;7.18;85.79;96597.50;6062083;23;20240;-83
2020/12/12 00:11:24;;;;;;;10.50;8.68;;;;;;;7.37;83.91;96597.47;6037864;23;20192;-84
2020/12/12 00:13:50;;;;;;;12.60;9.13;;;;;;;7.41;83.23;96589.03;6065161;23;20169;-83
2020/12/12 00:16:17;;;;;;;10.38;9.00;;;;;;;7.23;84.08;96600.59;6020457;23;20546;-83
2020/12/12 00:18:44;;;;;;;11.57;9.18;;;;;;;7.16;84.75;96594.97;6036083;23;20215;-85
2020/12/12 00:21:12;;;;;;;12.65;10.35;;;;;;;7.19;85.07;96588.47;6012665;23;20265;-82
2020/12/12 00:23:39;;;;;;;12.57;10.55;;;;;;;7.11;84.81;96597.22;6035593;23;20235;-84
2020/12/12 00:26:06;;;;;;;15.60;10.93;;;;;;;7.03;85.26;96583.72;6039908;23;20180;-85
2020/12/12 00:28:34;;;;;;;15.20;10.27;;;;;;;6.97;85.04;96580.75;6035541;23;20216;-83
2020/12/12 00:31:01;;;;;;;10.65;9.25;;;;;;;7.38;84.04;96589.31;6012480;23;20284;-83
2020/12/12 00:33:27;;;;;;;11.38;8.57;;;;;;;7.10;84.32;96584.00;6010754;23;20844;-84
2020/12/12 00:35:54;;;;;;;11.48;8.52;;;;;;;7.01;84.64;96590.19;6013698;23;20201;-85
2020/12/12 00:38:20;;;;;;;16.23;9.90;;;;;;;6.98;85.08;96585.13;6013673;23;20200;-85
2020/12/12 00:40:46;;;;;;;9.38;7.95;;;;;;;7.03;85.35;96588.22;6027845;23;20201;-82
2020/12/12 00:43:13;;;;;;;9.57;7.88;;;;;;;6.99;85.36;96594.81;6050848;23;20259;-82
2020/12/12 00:45:39;;;;;;;7.93;6.40;;;;;;;6.98;85.18;96587.78;6045978;23;20586;-84
2020/12/12 00:48:05;;;;;;;7.93;7.07;;;;;;;7.04;85.26;96589.91;6017391;23;20215;-88
2020/12/12 00:50:32;;;;;;;9.65;7.53;;;;;;;7.04;85.45;96597.91;6054941;23;20215;-84
2020/12/12 00:52:58;;;;;;;9.18;7.60;;;;;;;7.06;85.40;96590.59;6046395;23;20204;-85
2020/12/12 00:55:24;;;;;;;8.30;7.40;;;;;;;7.10;85.31;96594.69;6028621;23;20228;-83
2020/12/12 00:57:50;;;;;;;7.50;6.70;;;;;;;7.16;85.37;96591.44;6014210;23;20557;-86
2020/12/12 01:00:16;;;;;;;9.25;7.53;;;;;;;7.10;85.02;96594.69;6012837;23;20205;-86
2020/12/12 01:02:42;;;;;;;8.73;7.82;;;;;;;7.08;85.22;96596.66;6037494;23;20208;-86
2020/12/12 01:05:08;;;;;;;9.13;7.93;;;;;;;7.04;85.06;96595.25;6069880;23;20602;-86
2020/12/12 01:07:35;;;;;;;9.05;7.93;;;;;;;7.06;85.18;96602.13;6016603;23;20580;-87
2020/12/12 01:10:01;;;;;;;8.35;7.18;;;;;;;7.07;85.20;96603.00;6012617;23;20204;-85
2020/12/12 01:12:27;;;;;;;7.95;7.13;;;;;;;6.99;85.30;96601.00;6022026;23;20674;-84
2020/12/12 01:14:53;;;;;;;9.80;7.97;;;;;;;7.02;85.43;96598.03;6036343;23;20216;-86
2020/12/12 01:17:19;;;;;;;8.10;7.30;;;;;;;7.05;85.17;96602.28;6036163;23;20180;-83
2020/12/12 01:19:46;;;;;;;10.20;8.00;;;;;;;7.01;85.32;96600.88;6050438;23;20185;-85
2020/12/12 01:22:12;;;;;;;11.25;7.78;;;;;;;6.97;85.44;96597.66;6037521;23;20208;-86
2020/12/12 01:24:39;;;;;;;10.05;8.00;;;;;;;7.01;85.55;96611.56;6036169;23;20208;-83
2020/12/12 01:27:05;;;;;;;10.95;7.70;;;;;;;6.98;85.65;96606.47;6013034;23;20228;-82
2020/12/12 01:29:31;;;;;;;11.15;9.02;;;;;;;7.02;85.74;96602.56;6012653;23;20200;-83
2020/12/12 01:31:57;;;;;;;15.23;10.35;;;;;;;6.93;86.20;96608.72;6016785;23;20232;-83
2020/12/12 01:34:23;;;;;;;10.68;8.40;;;;;;;6.95;86.47;96606.78;6037341;23;20670;-83
2020/12/12 01:36:50;;;;;;;8.57;7.65;;;;;;;6.93;86.57;96616.75;6012126;23;20208;-84
2020/12/12 01:39:16;;;;;;;10.57;8.55;;;;;;;6.96;86.67;96613.81;6036148;23;20227;-83
2020/12/12 01:41:42;;;;;;;14.47;9.90;;;;;;;7.08;86.53;96610.03;6012649;23;20232;-84
2020/12/12 01:44:08;;;;;;;11.77;9.40;;;;;;;7.02;86.34;96607.91;6035313;23;20487;-85
2020/12/12 01:46:35;;;;;;;11.68;8.75;;;;;;;7.09;86.62;96611.69;6016290;23;20157;-86
2020/12/12 01:49:01;;;;;;;9.25;7.57;;;;;;;7.10;86.56;96610.72;6020855;23;20196;-85
2020/12/12 01:51:27;;;;;;;8.30;6.63;;;;;;;7.08;86.67;96612.69;6063159;23;20275;-83
2020/12/12 01:53:56;;;;;;;8.55;7.65;;;;;;;7.13;86.56;96610.41;6061908;23;20260;-86
2020/12/12 01:56:26;;;;;;;8.77;6.68;;;;;;;7.12;86.48;96608.72;6035536;23;20172;-85
2020/12/12 01:58:53;;;;;;;8.15;6.88;;;;;;;7.07;86.53;96608.34;6018143;23;20180;-84
2020/12/12 02:01:26;;;;;;;7.65;6.43;;;;;;;7.13;86.60;96610.41;6038368;23;20213;-84
2020/12/12 02:03:55;;;;;;;8.52;7.53;;;;;;;7.21;86.46;96613.25;6041615;23;20224;-85
2020/12/12 02:06:21;;;;;;;7.60;6.80;;;;;;;7.25;86.13;96615.50;6014863;23;20209;-85
2020/12/12 02:08:52;;;;;;;8.07;7.28;;;;;;;7.28;86.21;96614.38;6021993;23;20204;-86
2020/12/12 02:11:20;;;;;;;7.80;7.00;;;;;;;7.31;86.25;96606.06;6043223;23;20189;-87
2020/12/12 02:13:47;;;;;;;8.43;7.25;;;;;;;7.32;86.10;96613.09;6046558;23;20173;-83
2020/12/12 02:16:15;;;;;;;8.48;7.68;;;;;;;7.31;86.12;96614.06;6044489;23;20280;-85
2020/12/12 02:18:41;;;;;;;8.55;7.55;;;;;;;7.31;85.96;96614.06;6041714;23;20295;-88
2020/12/12 02:21:08;;;;;;;9.50;7.68;;;;;;;7.31;86.31;96609.59;6018546;23;20215;-83
2020/12/12 02:23:35;;;;;;;9.93;8.93;;;;;;;7.35;86.00;96618.16;6044852;23;20286;-84
2020/12/12 02:26:02;;;;;;;11.50;10.30;;;;;;;7.35;85.99;96616.34;6052126;23;20169;-84
2020/12/12 02:28:46;;;;;;;10.75;8.27;;;;;;;7.29;86.02;96616.06;6053706;23;20204;-84
2020/12/12 02:31:12;;;;;;;8.63;7.72;;;;;;;7.31;85.97;96606.06;6031311;23;20248;-85
2020/12/12 02:33:38;;;;;;;8.75;7.72;;;;;;;7.31;86.04;96614.06;6032212;23;20212;-85
2020/12/12 02:36:06;;;;;;;9.65;7.40;;;;;;;7.28;86.10;96614.38;6054749;23;20197;-83
2020/12/12 02:38:33;;;;;;;8.75;7.50;;;;;;;7.31;86.01;96603.38;6047605;23;20208;-82
2020/12/12 02:41:00;;;;;;;8.43;7.25;;;;;;;7.28;85.85;96606.34;6052239;23;20249;-84
2020/12/12 02:43:27;;;;;;;9.73;7.85;;;;;;;7.31;85.97;96603.38;6025397;23;20215;-86
2020/12/12 02:45:54;;;;;;;8.98;8.00;;;;;;;7.29;85.72;96606.22;6045069;23;20223;-84
2020/12/12 02:48:49;;;;;;;9.45;7.55;;;;;;;7.30;85.93;96612.38;6027101;23;20203;-85
2020/12/12 02:51:16;;;;;;;7.88;6.95;;;;;;;7.29;85.82;96608.03;6046052;23;20695;-87
2020/12/12 02:53:48;;;;;;;7.95;7.10;;;;;;;7.29;85.84;96608.91;5991703;23;20200;-87
2020/12/12 02:56:18;;;;;;;8.82;7.65;;;;;;;7.28;85.94;96609.03;6028780;23;20173;-85
2020/12/12 02:58:52;;;;;;;8.73;7.72;;;;;;;7.36;85.66;96606.47;6050876;23;20255;-86
2020/12/12 03:02:14;;;;;;;9.25;7.72;;;;;;;7.33;85.63;96614.81;6041643;23;20281;-85
2020/12/12 03:04:51;;;;;;;7.00;6.30;;;;;;;7.37;85.50;96610.84;6019722;23;20215;-84
2020/12/12 03:07:23;;;;;;;8.18;6.53;;;;;;;7.31;85.43;96608.72;6044040;23;20208;-86
2020/12/12 03:10:33;;;;;;;8.80;7.03;;;;;;;7.29;85.59;96610.72;6026993;23;20208;-85
2020/12/12 03:13:00;;;;;;;8.40;6.68;;;;;;;7.29;85.61;96616.06;5872505;23;20277;-83
2020/12/12 03:18:55;;;;;;;7.47;6.10;;;;;;;7.26;85.49;96611.84;6056635;23;20260;-84
2020/12/12 03:21:21;;;;;;;8.35;6.80;;;;;;;7.24;85.46;96612.97;6056696;23;20209;-84
2020/12/12 03:23:48;;;;;;;8.20;6.55;;;;;;;7.26;85.37;96611.00;6005542;23;20192;-84
2020/12/12 03:26:14;;;;;;;9.80;7.50;;;;;;;7.29;85.60;96616.91;6021394;23;20488;-84
2020/12/12 03:28:40;;;;;;;9.10;7.15;;;;;;;7.31;85.63;96620.28;6008664;23;20181;-84
2020/12/12 03:31:06;;;;;;;9.32;7.68;;;;;;;7.33;85.77;96620.16;6038732;23;20192;-83
2020/12/12 03:33:38;;;;;;;11.90;8.98;;;;;;;7.33;85.83;96617.47;6036981;23;20196;-84
2020/12/12 03:36:06;;;;;;;15.43;9.00;;;;;;;7.34;86.00;96617.31;6034764;23;20184;-84
2020/12/12 03:38:32;;;;;;;8.13;7.22;;;;;;;7.36;85.67;96618.03;6029936;23;20212;-84
2020/12/12 03:40:58;;;;;;;12.88;9.20;;;;;;;7.75;83.58;96621.47;6029345;23;20261;-86
2020/12/12 03:43:25;;;;;;;9.55;8.05;;;;;;;7.64;83.90;96616.28;6022796;23;20260;-84
2020/12/12 03:45:52;;;;;;;11.30;8.35;;;;;;;7.46;84.11;96621.53;6032307;23;20214;-85
2020/12/12 03:48:18;;;;;;;10.73;7.47;;;;;;;7.38;84.71;96626.75;6043476;23;20197;-86
2020/12/12 03:50:44;;;;;;;7.55;6.63;;;;;;;7.33;84.60;96620.16;6035994;23;20255;-85
2020/12/12 03:53:12;;;;;;;7.65;6.95;;;;;;;7.31;84.94;96630.09;6016308;23;20260;-85
2020/12/12 03:55:39;;;;;;;7.78;6.95;;;;;;;7.29;84.64;96621.41;6024301;23;20169;-85
2020/12/12 03:58:05;;;;;;;7.38;6.65;;;;;;;7.29;84.62;96627.59;6028807;23;20208;-85
2020/12/12 04:00:33;;;;;;;7.72;6.85;;;;;;;7.27;84.59;96618.03;6026304;23;20212;-84
2020/12/12 04:02:59;;;;;;;9.40;7.15;;;;;;;7.23;84.48;96617.47;5985023;23;20208;-85
2020/12/12 04:05:26;;;;;;;10.30;7.90;;;;;;;7.18;84.83;96625.06;6018066;23;20200;-85
2020/12/12 04:07:52;;;;;;;8.60;7.25;;;;;;;7.22;84.84;96625.63;6020796;23;20180;-85
2020/12/12 04:10:18;;;;;;;10.90;8.52;;;;;;;7.18;85.01;96626.88;6018664;23;20208;-84
2020/12/12 04:12:44;;;;;;;8.55;7.43;;;;;;;7.20;85.06;96622.25;6030268;23;20208;-85
2020/12/12 04:15:13;;;;;;;8.63;7.65;;;;;;;7.24;85.19;96634.34;6019292;23;20216;-85
2020/12/12 04:17:39;;;;;;;8.65;7.25;;;;;;;7.24;85.22;96627.19;6019224;23;20208;-86
2020/12/12 04:20:07;;;;;;;9.07;8.13;;;;;;;7.28;85.27;96630.41;5995672;23;20193;-86
2020/12/12 04:22:36;;;;;;;10.50;8.57;;;;;;;7.22;85.73;96630.97;6018714;23;20223;-85
2020/12/12 04:25:05;;;;;;;10.52;8.80;;;;;;;7.15;85.85;96629.84;6018897;23;20744;-85
2020/12/12 04:27:31;;;;;;;9.68;7.90;;;;;;;7.21;85.91;96627.44;6018441;23;20213;-85
2020/12/12 04:29:57;;;;;;;11.13;8.65;;;;;;;7.24;85.82;96632.53;6017991;23;20224;-85
2020/12/12 04:32:23;;;;;;;9.57;8.40;;;;;;;7.23;86.20;96632.66;6017657;23;20177;-85
2020/12/12 04:34:50;;;;;;;11.15;8.73;;;;;;;7.19;86.18;96634.75;6020626;23;20169;-85
2020/12/12 04:37:19;;;;;;;9.35;8.35;;;;;;;7.22;86.19;96636.31;6013615;23;20208;-85
2020/12/12 04:39:45;;;;;;;10.63;8.45;;;;;;;7.22;86.17;96637.13;5993312;23;20213;-84
2020/12/12 04:42:16;;;;;;;10.82;9.00;;;;;;;7.18;86.05;96643.78;6017671;23;20228;-84
2020/12/12 04:44:43;;;;;;;10.30;8.50;;;;;;;7.22;85.84;96636.31;5995962;23;20276;-84
2020/12/12 04:47:11;;;;;;;9.65;8.65;;;;;;;7.23;85.93;96633.50;6030613;23;20215;-85
2020/12/12 04:49:41;;;;;;;10.45;8.15;;;;;;;7.26;86.08;96643.06;5998420;23;20215;-85
2020/12/12 04:52:14;;;;;;;9.95;8.90;;;;;;;7.23;86.00;96640.66;6015691;23;20611;-85
2020/12/12 04:54:42;;;;;;;13.20;9.73;;;;;;;7.22;85.85;96641.66;5993903;23;20285;-85
2020/12/12 04:57:11;;;;;;;12.05;8.35;;;;;;;7.29;86.02;96646.31;6017295;23;20260;-85
2020/12/12 04:59:42;;;;;;;9.77;8.40;;;;;;;7.29;85.83;96648.13;5995677;23;20287;-85
2020/12/12 05:02:13;;;;;;;9.40;8.02;;;;;;;7.26;85.84;96654.59;5993894;23;20197;-86
2020/12/12 05:04:47;;;;;;;10.70;9.10;;;;;;;7.28;85.85;96651.78;6021315;23;20176;-85
2020/12/12 05:07:14;;;;;;;16.98;12.23;;;;;;;7.28;85.71;96647.28;6019238;23;20232;-85
2020/12/12 05:09:44;;;;;;;14.48;10.68;;;;;;;7.31;85.36;96652.34;6020392;23;20669;-85
2020/12/12 05:12:13;;;;;;;9.57;8.50;;;;;;;7.26;85.26;96648.41;6013853;23;20196;-85
2020/12/12 05:14:39;;;;;;;7.78;6.97;;;;;;;7.25;85.27;96652.06;6016840;23;20236;-86
2020/12/12 05:17:08;;;;;;;8.43;7.63;;;;;;;7.24;85.29;96653.91;6031511;23;20247;-85
2020/12/12 05:19:37;;;;;;;9.13;7.75;;;;;;;7.30;85.24;96650.66;5979488;23;20209;-85
2020/12/12 05:22:04;;;;;;;8.43;6.97;;;;;;;7.38;85.10;96649.94;5995547;23;20212;-85
2020/12/12 05:24:30;;;;;;;8.88;7.53;;;;;;;7.34;84.89;96651.22;6017565;23;20228;-85
2020/12/12 05:27:02;;;;;;;7.82;6.68;;;;;;;7.28;84.82;96651.78;6016963;23;20201;-85
2020/12/12 05:29:28;;;;;;;7.25;6.55;;;;;;;7.24;84.93;96650.38;6017676;23;20208;-85
2020/12/12 05:31:59;;;;;;;7.65;6.85;;;;;;;7.29;85.25;96653.47;6021447;23;20176;-85
2020/12/12 05:34:26;;;;;;;5.95;5.40;;;;;;;7.26;85.17;96646.56;6017013;23;20225;-85
2020/12/12 05:36:54;;;;;;;7.30;6.57;;;;;;;7.35;84.99;96652.91;5994144;23;20221;-85
2020/12/12 05:39:21;;;;;;;6.28;5.63;;;;;;;7.25;85.01;96652.91;5994148;23;20216;-85
2020/12/12 05:41:48;;;;;;;6.50;5.70;;;;;;;7.24;85.34;96655.72;5993138;23;20208;-85
2020/12/12 05:44:18;;;;;;;7.47;6.72;;;;;;;7.23;85.35;96652.22;6017494;23;20181;-86
2020/12/12 05:46:46;;;;;;;7.57;6.30;;;;;;;7.24;85.46;96651.22;5996368;23;20213;-85
2020/12/12 05:49:15;;;;;;;6.75;6.03;;;;;;;7.24;85.16;96669.06;6016016;23;20209;-85
2020/12/12 05:51:41;;;;;;;6.20;5.60;;;;;;;7.28;85.25;96652.63;6016659;23;20216;-85
2020/12/12 05:54:08;;;;;;;6.60;6.00;;;;;;;7.26;85.28;96669.81;6015815;23;20209;-85
2020/12/12 05:56:34;;;;;;;6.82;6.05;;;;;;;7.29;85.20;96669.50;6016952;23;20204;-85
2020/12/12 05:59:00;;;;;;;6.95;6.20;;;;;;;7.31;85.31;96670.19;5997359;23;20617;-84
2020/12/12 06:01:30;;;;;;;8.15;7.35;;;;;;;7.28;85.29;96671.31;5974126;23;20244;-85
2020/12/12 06:04:02;;;;;;;6.90;6.20;;;;;;;7.32;85.03;96669.22;5994766;23;20208;-85
2020/12/12 06:06:29;;;;;;;7.82;6.72;;;;;;;7.29;85.08;96669.50;5994831;23;20212;-86
2020/12/12 06:08:59;;;;;;;7.97;6.90;;;;;;;7.31;85.03;96668.38;6023695;23;20221;-86
2020/12/12 06:11:28;;;;;;;6.97;6.13;;;;;;;7.34;84.88;96673.44;6021148;23;20200;-86
2020/12/12 06:14:03;;;;;;;7.05;6.35;;;;;;;7.38;84.95;96674.84;6007008;23;20559;-86
2020/12/12 06:16:33;;;;;;;8.30;7.30;;;;;;;7.40;84.90;96680.06;5982631;23;20208;-86
2020/12/12 06:19:17;;;;;;;6.50;5.90;;;;;;;7.41;84.65;96684.44;5981625;23;20208;-86
2020/12/12 06:21:48;;;;;;;7.22;6.07;;;;;;;7.38;84.71;96687.38;6018526;23;20291;-86
2020/12/12 06:24:18;;;;;;;6.78;6.05;;;;;;;7.40;84.79;96688.91;6067377;23;20215;-85
2020/12/12 06:27:00;;;;;;;6.28;5.68;;;;;;;7.43;84.80;96691.31;6075413;23;20200;-86
2020/12/12 06:29:31;;;;;;;6.38;5.80;;;;;;;7.46;84.63;96692.88;6075682;23;20164;-86
2020/12/12 06:32:14;;;;;;;7.15;6.03;;;;;;;7.43;84.35;96698.47;6044529;23;20157;-85
2020/12/12 06:34:46;;;;;;;6.18;5.50;;;;;;;7.49;84.40;96700.59;6018146;23;20301;-85
2020/12/12 06:37:32;;;;;;;7.00;6.22;;;;;;;7.44;84.15;96705.50;6065391;23;20231;-86
2020/12/12 06:40:00;;;;;;;6.65;5.95;;;;;;;7.37;84.33;96715.09;6063807;23;20212;-85
2020/12/12 06:42:29;;;;;;;7.00;5.90;;;;;;;7.36;84.32;96714.25;6016004;23;20220;-85
2020/12/12 06:44:55;;;;;;;6.70;6.00;;;;;;;7.40;84.48;96715.66;6039657;23;20640;-85
2020/12/12 06:47:39;;;;;;;6.53;5.88;;;;;;;7.36;84.54;96708.91;6015991;23;20653;-85
2020/12/12 06:50:12;;;;;;;7.57;5.78;;;;;;;7.35;84.70;96717.91;6067216;23;20188;-85
2020/12/12 06:52:38;;;;;;;7.40;6.30;;;;;;;7.32;84.81;96725.34;6039271;23;20208;-85
2020/12/12 06:55:09;;;;;;;6.78;6.18;;;;;;;7.36;85.00;96726.75;6016732;23;20208;-85
2020/12/12 06:57:47;;;;;;;5.97;5.38;;;;;;;7.36;84.77;96732.09;6040950;23;20295;-86
2020/12/12 07:00:27;;;;;;;7.43;6.72;;;;;;;7.30;84.70;96724.66;6015849;23;20220;-85
2020/12/12 07:03:06;;;;;;;6.55;5.93;;;;;;;7.40;84.52;96730.84;6003002;23;20215;-86
2020/12/12 07:05:35;;;;;;;6.43;5.47;;;;;;;7.40;84.86;96736.22;6063676;23;20683;-86
2020/12/12 07:08:07;;;;;;;8.10;6.93;;;;;;;7.44;85.01;96732.25;6019990;23;20177;-86
2020/12/12 07:10:36;;;;;;;6.95;5.80;;;;;;;7.46;84.56;96735.66;6017680;23;20654;-86
2020/12/12 07:13:03;;;;;;;6.40;5.57;;;;;;;7.46;84.86;96741.00;6017290;23;20216;-86
2020/12/12 07:15:35;;;;;;;7.28;6.13;;;;;;;7.42;84.61;96742.25;6040107;23;20299;-86
2020/12/12 07:18:05;;;;;;;6.13;5.53;;;;;;;7.45;84.64;96748.16;6064082;23;20697;-85
2020/12/12 07:20:40;;;;;;;7.53;6.82;;;;;;;7.48;84.65;96755.06;6064127;23;20212;-86
2020/12/12 07:23:07;;;;;;;7.47;6.22;;;;;;;7.51;84.63;96754.75;6073380;23;20227;-85
2020/12/12 07:25:35;;;;;;;6.25;5.65;;;;;;;7.59;84.65;96765.63;6085783;23;20196;-85
2020/12/12 07:28:05;;;;;;;6.53;5.93;;;;;;;7.51;84.12;96760.97;6042416;23;20207;-85
2020/12/12 07:30:34;;;;;;;6.20;5.60;;;;;;;7.55;84.22;96770.41;6039743;23;20252;-84
2020/12/12 07:33:02;;;;;;;7.70;6.13;;;;;;;7.99;82.81;96771.69;6064488;23;20203;-84
2020/12/12 07:35:30;;;;;;;7.70;6.90;;;;;;;8.03;82.11;96778.44;6042545;23;20218;-84
2020/12/12 07:38:07;;;;;;;6.93;6.20;;;;;;;7.84;82.59;96778.47;6067716;23;20179;-84
2020/12/12 07:40:38;;;;;;;7.07;6.38;;;;;;;7.75;83.08;96780.13;5981043;23;20264;-84
2020/12/12 07:43:10;;;;;;;7.38;6.20;;;;;;;7.89;82.33;96787.75;6068041;23;20262;-85
2020/12/12 07:45:54;;;;;;;6.75;6.15;;;;;;;7.80;82.56;96791.28;6028414;23;20206;-84
2020/12/12 07:48:21;;;;;;;10.50;5.57;;;;;;;7.77;82.83;96793.34;6030016;23;20207;-85
2020/12/12 07:50:47;;;;;;;6.65;6.05;;;;;;;8.17;81.84;96794.06;6062534;23;20267;-85
2020/12/12 07:53:17;;;;;;;5.80;5.30;;;;;;;8.22;81.15;96795.34;6054866;23;20576;-85
2020/12/12 07:55:52;;;;;;;6.15;5.55;;;;;;;8.18;81.48;96809.13;6027915;23;20160;-85
2020/12/12 07:58:21;;;;;;;6.05;5.45;;;;;;;8.03;82.10;96807.88;6071072;23;20219;-85
2020/12/12 08:01:00;;;;;;;5.82;5.32;;;;;;;8.17;82.34;96802.09;6071699;23;20223;-86
2020/12/12 08:03:28;;;;;;;5.90;5.00;;;;;;;8.32;81.66;96814.94;6047330;23;20295;-85
2020/12/12 08:06:09;;;;;;;5.85;5.25;;;;;;;8.28;82.32;96810.84;5944543;23;20832;-86
2020/12/12 08:08:37;;;;;;;6.20;5.15;;;;;;;8.00;83.13;96821.53;6045522;23;20195;-86
2020/12/12 08:11:05;;;;;;;6.65;5.95;;;;;;;7.96;84.39;96825.47;6048610;23;20180;-87
2020/12/12 08:13:35;;;;;;;6.70;5.55;;;;;;;7.89;85.26;96827.00;6065983;23;20192;-85
2020/12/12 08:18:35;;;;;;;6.13;5.53;;;;;;;7.91;85.76;96838.44;5963777;23;20209;-85
2020/12/12 08:21:19;;;;;;;6.90;5.68;;;;;;;7.91;85.73;96838.44;6026224;23;20232;-86
2020/12/12 08:23:51;;;;;;;6.47;5.70;;;;;;;7.97;85.57;96843.22;6067085;23;20246;-85
2020/12/12 08:26:32;;;;;;;6.38;5.75;;;;;;;7.98;85.41;96850.28;6057360;23;20172;-86
2020/12/12 08:29:01;;;;;;;6.93;6.20;;;;;;;7.97;85.07;96853.94;6041274;23;20208;-85
2020/12/12 08:31:27;;;;;;;7.18;6.47;;;;;;;7.96;85.14;96854.88;6068571;23;20207;-86
2020/12/12 08:36:55;;;;;;;7.35;6.00;;;;;;;8.00;85.49;96859.84;6003081;23;20231;-86
2020/12/12 08:40:26;;;;;;;6.68;5.95;;;;;;;8.00;85.52;96865.19;5946055;23;20260;-86
2020/12/12 08:43:16;;;;;;;9.35;7.40;;;;;;;8.01;85.46;96871.38;5970896;23;20202;-86
2020/12/12 08:45:59;;;;;;;9.68;7.32;;;;;;;8.03;85.56;96883.63;6045043;23;20220;-85
2020/12/12 09:05:16;;;;;;;12.45;8.18;;;;;;;8.13;85.78;96902.38;6045374;23;20214;-86
2020/12/12 09:07:43;;;;;;;8.30;7.40;;;;;;;8.13;85.61;96902.38;6078939;23;20186;-85
2020/12/12 09:10:22;;;;;;;10.35;8.10;;;;;;;8.09;85.69;96906.31;6071466;23;20211;-84
2020/12/12 09:12:51;;;;;;;8.38;7.53;;;;;;;8.03;85.47;96912.25;6074563;23;20206;-86
2020/12/12 09:15:20;;;;;;;10.77;8.02;;;;;;;8.08;85.78;96909.97;6098865;23;20215;-86
2020/12/12 09:18:37;;;;;;;9.55;8.57;;;;;;;8.11;85.41;96921.25;6098460;23;20203;-86
2020/12/12 09:21:48;;;;;;;10.68;9.00;;;;;;;8.12;85.49;96922.09;6028445;23;20212;-86
2020/12/12 09:24:18;;;;;;;13.90;9.65;;;;;;;8.17;85.57;96925.22;5966805;23;20206;-86
2020/12/12 09:27:51;;;;;;;10.85;8.85;;;;;;;8.17;85.83;96930.56;5925669;24;20206;-86
2020/12/12 09:30:58;;;;;;;10.43;8.68;;;;;;;8.28;85.82;96933.13;6067131;23;20227;-86
2020/12/12 09:33:24;;;;;;;9.73;8.60;;;;;;;8.30;85.98;96928.50;6020927;23;20207;-84
2020/12/12 09:35:51;;;;;;;11.30;9.05;;;;;;;8.33;85.68;96930.88;6047890;23;20610;-86
2020/12/12 09:38:17;;;;;;;8.75;7.50;;;;;;;8.32;85.90;96939.91;6080971;23;20507;-86
2020/12/12 09:40:48;;;;;;;9.30;8.35;;;;;;;8.33;86.22;96941.59;6091500;23;20191;-84
2020/12/12 09:43:23;;;;;;;11.57;8.57;;;;;;;8.33;86.11;96938.91;6089704;23;20211;-84
2020/12/12 09:45:49;;;;;;;10.00;8.00;;;;;;;8.31;86.37;96959.63;6111316;23;20211;-85
2020/12/12 09:48:17;;;;;;;9.38;7.22;;;;;;;8.38;86.09;96955.41;6089267;23;20207;-84
2020/12/12 09:50:43;;;;;;;9.18;8.27;;;;;;;8.50;85.97;96951.63;6089377;23;20663;-84
2020/12/12 09:53:10;;;;;;;8.30;7.47;;;;;;;8.42;85.58;96962.19;6085043;23;20203;-86
2020/12/12 09:55:39;;;;;;;12.82;8.52;;;;;;;8.47;85.47;96954.56;6103784;23;20171;-86
2020/12/12 09:58:09;;;;;;;8.68;7.35;;;;;;;8.49;85.39;96966.00;6075152;23;21134;-85
2020/12/12 10:00:38;;;;;;;8.98;7.85;;;;;;;8.47;85.56;96966.13;6098611;23;20207;-85
2020/12/12 10:03:05;;;;;;;15.27;11.05;;;;;;;8.50;85.99;96967.69;6076068;23;20573;-85
2020/12/12 10:05:34;;;;;;;10.00;7.90;;;;;;;8.58;85.65;96973.19;6084379;23;20207;-85
2020/12/12 10:08:00;;;;;;;9.55;8.50;;;;;;;8.61;85.51;96972.91;6112950;23;20581;-84
2020/12/12 10:10:28;;;;;;;8.82;7.93;;;;;;;8.63;85.02;96973.63;6088585;23;20211;-84
2020/12/12 10:12:55;;;;;;;9.63;7.60;;;;;;;8.52;84.83;96979.09;6111124;23;20215;-85
2020/12/12 10:15:22;;;;;;;9.30;7.35;;;;;;;8.50;85.32;96981.09;6092025;23;20203;-86
2020/12/12 10:17:49;;;;;;;9.55;8.02;;;;;;;8.51;85.63;96980.94;6091768;22;20203;-83
2020/12/12 10:20:17;;;;;;;8.90;6.85;;;;;;;8.50;85.68;96981.09;6070400;23;20175;-86
2020/12/12 10:22:47;;;;;;;9.75;7.72;;;;;;;8.48;86.31;96977.72;6099996;23;20206;-85
2020/12/12 10:25:13;;;;;;;10.23;7.90;;;;;;;8.61;86.65;96983.63;6082974;23;20231;-84
2020/12/12 10:27:40;;;;;;;9.85;7.88;;;;;;;8.66;86.15;96978.69;6095868;23;20555;-85
2020/12/12 10:30:09;;;;;;;9.55;8.23;;;;;;;8.64;86.11;96984.19;6072820;23;20270;-85
2020/12/12 10:32:36;;;;;;;8.85;7.82;;;;;;;8.66;85.94;96979.53;6094694;23;20262;-85
2020/12/12 10:35:12;;;;;;;8.23;7.40;;;;;;;8.76;86.00;96979.53;6070568;23;20199;-85
2020/12/12 10:37:45;;;;;;;13.13;9.10;;;;;;;8.76;85.46;96987.56;6081714;23;20165;-85
2020/12/12 10:40:26;;;;;;;8.88;7.78;;;;;;;8.82;85.82;96992.38;6119053;23;20191;-84
2020/12/12 10:42:52;;;;;;;13.27;11.15;;;;;;;9.18;84.66;96989.78;6062658;23;20206;-85
2020/12/12 10:45:22;;;;;;;14.45;12.05;;;;;;;9.08;84.81;96988.13;6072686;23;20203;-85
2020/12/12 10:47:55;;;;;;;15.77;10.95;;;;;;;9.12;84.89;96994.91;6025711;23;20208;-85
2020/12/12 10:50:24;;;;;;;11.70;9.43;;;;;;;9.14;84.55;96999.09;6026197;23;20203;-84
2020/12/12 10:56:00;;;;;;;12.07;9.27;;;;;;;9.08;84.13;97005.06;6120820;23;20218;-87
2020/12/12 10:58:26;;;;;;;9.85;8.82;;;;;;;9.15;84.22;97013.34;6075759;23;20203;-86
2020/12/12 11:00:53;;;;;;;9.85;8.60;;;;;;;9.27;84.00;97004.16;6052289;23;20211;-86
2020/12/12 11:03:20;;;;;;;11.05;8.80;;;;;;;9.28;83.75;97008.53;6076170;23;20286;-86
2020/12/12 11:05:46;;;;;;;9.65;8.65;;;;;;;9.31;83.68;97011.78;6047770;23;20210;-86
2020/12/12 11:08:13;;;;;;;12.77;10.23;;;;;;;9.28;83.92;97016.59;6052320;23;20172;-84
2020/12/12 11:10:40;;;;;;;11.35;9.82;;;;;;;9.12;83.92;97017.16;6081504;23;20191;-86
2020/12/12 11:13:06;;;;;;;15.63;13.70;;;;;;;9.11;84.51;97022.66;6077922;23;20211;-85
2020/12/12 11:15:38;;;;;;;14.32;12.35;;;;;;;9.10;84.91;97023.66;6057425;23;20229;-85
2020/12/12 11:18:06;;;;;;;11.32;10.10;;;;;;;9.14;84.39;97019.72;6058228;23;20207;-84
2020/12/12 11:20:33;;;;;;;12.07;8.27;;;;;;;8.97;84.41;97017.75;6090061;23;20213;-85
2020/12/12 11:23:02;;;;;;;8.80;7.05;;;;;;;9.00;84.60;97025.50;6071337;23;20230;-85
2020/12/12 11:25:29;;;;;;;8.90;7.45;;;;;;;8.98;84.60;97030.16;6089629;23;20227;-86
2020/12/12 11:28:23;;;;;;;11.40;7.97;;;;;;;9.06;84.86;97030.31;6065901;23;20207;-89
2020/12/12 11:31:23;;;;;;;12.02;9.07;;;;;;;9.17;84.88;97035.50;6094994;23;20203;-89
2020/12/12 11:34:16;;;;;;;14.40;10.27;;;;;;;9.36;84.21;97040.84;6064144;23;20203;-89
2020/12/12 11:48:00;;;;;;;8.57;6.95;;;;;;;9.28;82.62;97059.50;5950914;24;20170;-89
2020/12/12 11:50:48;;;;;;;10.45;9.05;;;;;;;9.38;82.39;97057.66;5939111;23;20199;-90
2020/12/12 11:53:15;;;;;;;7.55;6.50;;;;;;;9.37;82.08;97051.44;5933911;24;20167;-88
2020/12/12 11:55:45;;;;;;;7.10;6.35;;;;;;;9.41;80.97;97054.66;5950179;24;20171;-90
2020/12/12 11:58:23;;;;;;;7.20;5.40;;;;;;;9.45;81.33;97061.44;5979382;23;20213;-91
2020/12/12 12:19:12;;;;;;;6.85;5.07;;;;;;;9.88;79.07;97076.03;5975866;23;20216;-88
2020/12/12 12:23:14;;;;;;;8.25;5.03;;;;;;;10.11;78.65;97072.03;6067576;23;20231;-89
2020/12/12 12:56:14;;;;;;;9.95;6.97;;;;;;;9.91;79.38;97117.84;6117518;23;20198;-87
2020/12/12 12:58:40;;;;;;;7.28;5.93;;;;;;;9.73;79.70;97122.25;6096779;23;20191;-82
2020/12/12 13:01:07;;;;;;;7.53;6.43;;;;;;;9.69;80.19;97120.84;6071062;23;20203;-83
2020/12/12 13:03:34;;;;;;;8.43;6.20;;;;;;;9.78;79.83;97118.13;6113312;23;20203;-87
2020/12/12 13:06:54;;;;;;;8.77;6.97;;;;;;;9.64;80.05;97125.81;6041426;23;20187;-86
2020/12/12 13:09:30;;;;;;;8.18;6.95;;;;;;;9.63;80.33;97137.53;6067096;23;20262;-88
2020/12/12 13:12:03;;;;;;;10.43;7.75;;;;;;;9.66;80.19;97135.41;6109573;23;20231;-88
2020/12/12 13:14:30;;;;;;;7.80;6.55;;;;;;;9.44;81.06;97145.59;6048133;23;20205;-87
2020/12/12 13:16:57;;;;;;;8.60;6.70;;;;;;;9.51;81.02;97152.09;6081404;23;20216;-88
2020/12/12 13:19:35;;;;;;;8.77;7.20;;;;;;;9.62;80.64;97149.22;6017107;23;20236;-86
2020/12/12 13:22:21;;;;;;;8.20;6.90;;;;;;;9.57;80.66;97146.16;6039029;23;20250;-92
2020/12/12 13:25:03;;;;;;;10.20;6.90;;;;;;;9.56;81.46;97150.66;5968863;23;20201;-87
2020/12/12 13:27:31;;;;;;;11.10;8.35;;;;;;;9.36;80.90;97159.69;6031743;23;20197;-88